sensor_id;sensor_type;location;lat;lon;timestamp;pressure;altitude;pressure_sealevel;temperature;humidity
6132;BME280;3097;42.692;23.278;2022-08-19T00:00:36;94760.25;;;23.22;66.95
6132;BME280;3097;42.692;23.278;2022-08-19T00:03:03;94758.72;;;23.21;66.84
6132;BME280;3097;42.692;23.278;2022-08-19T00:05:29;94759.31;;;23.18;67.35
6132;BME280;3097;42.692;23.278;2022-08-19T00:07:54;94767.19;;;23.18;67.49
6132;BME280;3097;42.692;23.278;2022-08-19T00:10:20;94763.19;;;23.21;67.51
6132;BME280;3097;42.692;23.278;2022-08-19T00:12:45;94765.63;;;23.17;68.11
6132;BME280;3097;42.692;23.278;2022-08-19T00:15:15;94768.09;;;23.13;67.55
6132;BME280;3097;42.692;23.278;2022-08-19T00:17:45;94746.03;;;22.92;67.88
6132;BME280;3097;42.692;23.278;2022-08-19T00:20:14;94773.91;;;23.02;68.10
6132;BME280;3097;42.692;23.278;2022-08-19T00:22:42;94775.31;;;22.99;68.11
6132;BME280;3097;42.692;23.278;2022-08-19T00:25:08;94765.34;;;22.88;67.95
6132;BME280;3097;42.692;23.278;2022-08-19T00:27:34;94776.69;;;22.97;68.07
6132;BME280;3097;42.692;23.278;2022-08-19T00:30:00;94781.34;;;23.00;68.06
6132;BME280;3097;42.692;23.278;2022-08-19T00:32:27;94771.41;;;22.97;67.67
6132;BME280;3097;42.692;23.278;2022-08-19T00:34:52;94769.28;;;22.99;67.93
6132;BME280;3097;42.692;23.278;2022-08-19T00:37:23;94773.47;;;23.00;67.54
6132;BME280;3097;42.692;23.278;2022-08-19T00:39:49;94764.78;;;22.99;67.91
6132;BME280;3097;42.692;23.278;2022-08-19T00:42:17;94740.13;;;22.87;67.84
6132;BME280;3097;42.692;23.278;2022-08-19T00:44:42;94762.28;;;22.94;68.04
6132;BME280;3097;42.692;23.278;2022-08-19T00:47:08;94760.72;;;22.93;68.91
6132;BME280;3097;42.692;23.278;2022-08-19T00:49:37;94761.50;;;22.94;68.76
6132;BME280;3097;42.692;23.278;2022-08-19T00:52:07;94763.47;;;22.88;68.93
6132;BME280;3097;42.692;23.278;2022-08-19T00:54:35;94751.97;;;22.75;68.81
6132;BME280;3097;42.692;23.278;2022-08-19T00:57:05;94763.13;;;22.81;68.75
6132;BME280;3097;42.692;23.278;2022-08-19T00:59:31;94758.00;;;22.76;69.00
6132;BME280;3097;42.692;23.278;2022-08-19T01:01:57;94761.41;;;22.76;69.00
6132;BME280;3097;42.692;23.278;2022-08-19T01:04:22;94763.56;;;22.74;69.20
6132;BME280;3097;42.692;23.278;2022-08-19T01:06:48;94764.13;;;22.71;69.79
6132;BME280;3097;42.692;23.278;2022-08-19T01:09:13;94766.88;;;22.66;70.00
6132;BME280;3097;42.692;23.278;2022-08-19T01:11:41;94742.81;;;22.51;69.87
6132;BME280;3097;42.692;23.278;2022-08-19T01:14:09;94762.19;;;22.63;70.37
6132;BME280;3097;42.692;23.278;2022-08-19T01:16:35;94766.53;;;22.59;69.92
6132;BME280;3097;42.692;23.278;2022-08-19T01:19:04;94754.44;;;22.58;70.05
6132;BME280;3097;42.692;23.278;2022-08-19T01:21:43;94758.16;;;22.57;69.87
6132;BME280;3097;42.692;23.278;2022-08-19T01:24:12;94761.97;;;22.51;70.39
6132;BME280;3097;42.692;23.278;2022-08-19T01:26:40;94765.97;;;22.49;70.16
6132;BME280;3097;42.692;23.278;2022-08-19T01:29:07;94753.25;;;22.42;70.27
6132;BME280;3097;42.692;23.278;2022-08-19T01:31:33;94757.63;;;22.47;70.17
6132;BME280;3097;42.692;23.278;2022-08-19T01:34:00;94775.81;;;22.43;70.39
6132;BME280;3097;42.692;23.278;2022-08-19T01:36:30;94769.00;;;22.42;70.03
6132;BME280;3097;42.692;23.278;2022-08-19T01:38:57;94744.78;;;22.23;70.36
6132;BME280;3097;42.692;23.278;2022-08-19T01:41:23;94774.56;;;22.40;70.08
6132;BME280;3097;42.692;23.278;2022-08-19T01:43:50;94765.06;;;22.31;70.13
6132;BME280;3097;42.692;23.278;2022-08-19T01:46:17;94773.13;;;22.34;70.39
6132;BME280;3097;42.692;23.278;2022-08-19T01:48:43;94746.63;;;22.22;70.24
6132;BME280;3097;42.692;23.278;2022-08-19T01:51:10;94771.88;;;22.32;71.15
6132;BME280;3097;42.692;23.278;2022-08-19T01:53:37;94768.47;;;22.31;70.63
6132;BME280;3097;42.692;23.278;2022-08-19T01:56:03;94766.44;;;22.28;70.90
6132;BME280;3097;42.692;23.278;2022-08-19T01:58:41;94771.97;;;22.27;70.90
6132;BME280;3097;42.692;23.278;2022-08-19T02:01:11;94773.38;;;22.24;71.26
6132;BME280;3097;42.692;23.278;2022-08-19T02:03:37;94773.75;;;22.18;71.93
6132;BME280;3097;42.692;23.278;2022-08-19T02:06:03;94783.50;;;22.17;71.47
6132;BME280;3097;42.692;23.278;2022-08-19T02:08:31;94784.25;;;22.18;70.57
6132;BME280;3097;42.692;23.278;2022-08-19T02:10:57;94773.09;;;22.12;71.64
6132;BME280;3097;42.692;23.278;2022-08-19T02:13:24;94767.69;;;22.09;71.53
6132;BME280;3097;42.692;23.278;2022-08-19T02:15:50;94771.16;;;22.04;71.60
6132;BME280;3097;42.692;23.278;2022-08-19T02:18:15;94765.13;;;22.04;71.08
6132;BME280;3097;42.692;23.278;2022-08-19T02:20:42;94761.56;;;21.99;71.13
6132;BME280;3097;42.692;23.278;2022-08-19T02:23:10;94769.44;;;21.99;70.73
6132;BME280;3097;42.692;23.278;2022-08-19T02:25:35;94769.44;;;21.99;71.50
6132;BME280;3097;42.692;23.278;2022-08-19T02:28:01;94776.25;;;22.00;71.82
6132;BME280;3097;42.692;23.278;2022-08-19T02:30:27;94769.44;;;21.99;71.76
6132;BME280;3097;42.692;23.278;2022-08-19T02:32:53;94776.31;;;21.95;71.99
6132;BME280;3097;42.692;23.278;2022-08-19T02:35:18;94774.28;;;21.92;72.31
6132;BME280;3097;42.692;23.278;2022-08-19T02:37:44;94771.94;;;21.91;72.68
6132;BME280;3097;42.692;23.278;2022-08-19T02:40:29;94773.13;;;21.85;72.41
6132;BME280;3097;42.692;23.278;2022-08-19T02:42:55;94783.91;;;21.83;72.47
6132;BME280;3097;42.692;23.278;2022-08-19T02:45:21;94775.09;;;21.79;72.67
6132;BME280;3097;42.692;23.278;2022-08-19T02:47:47;94775.16;;;21.74;73.02
6132;BME280;3097;42.692;23.278;2022-08-19T02:50:12;94768.97;;;21.70;72.79
6132;BME280;3097;42.692;23.278;2022-08-19T02:52:38;94778.97;;;21.68;72.54
6132;BME280;3097;42.692;23.278;2022-08-19T02:55:05;94768.47;;;21.68;72.34
6132;BME280;3097;42.692;23.278;2022-08-19T02:57:31;94791.03;;;21.69;72.62
6132;BME280;3097;42.692;23.278;2022-08-19T02:59:57;94781.88;;;21.67;72.84
6132;BME280;3097;42.692;23.278;2022-08-19T03:02:23;94781.09;;;21.66;72.60
6132;BME280;3097;42.692;23.278;2022-08-19T03:04:48;94785.28;;;21.67;72.71
6132;BME280;3097;42.692;23.278;2022-08-19T03:07:15;94777.22;;;21.63;72.65
6132;BME280;3097;42.692;23.278;2022-08-19T03:09:41;94775.69;;;21.62;72.67
6132;BME280;3097;42.692;23.278;2022-08-19T03:12:08;94787.91;;;21.67;72.67
6132;BME280;3097;42.692;23.278;2022-08-19T03:14:34;94786.66;;;21.65;72.84
6132;BME280;3097;42.692;23.278;2022-08-19T03:17:00;94783.06;;;21.60;73.11
6132;BME280;3097;42.692;23.278;2022-08-19T03:19:26;94780.16;;;21.62;73.32
6132;BME280;3097;42.692;23.278;2022-08-19T03:21:52;94779.66;;;21.60;73.38
6132;BME280;3097;42.692;23.278;2022-08-19T03:24:19;94780.53;;;21.55;73.13
6132;BME280;3097;42.692;23.278;2022-08-19T03:26:48;94782.97;;;21.52;73.08
6132;BME280;3097;42.692;23.278;2022-08-19T03:29:15;94775.88;;;21.52;73.57
6132;BME280;3097;42.692;23.278;2022-08-19T03:31:42;94771.91;;;21.41;73.26
6132;BME280;3097;42.692;23.278;2022-08-19T03:34:10;94782.84;;;21.43;73.62
6132;BME280;3097;42.692;23.278;2022-08-19T03:36:37;94783.63;;;21.44;73.73
6132;BME280;3097;42.692;23.278;2022-08-19T03:39:03;94787.91;;;21.40;73.95
6132;BME280;3097;42.692;23.278;2022-08-19T03:41:31;94779.56;;;21.38;73.94
6132;BME280;3097;42.692;23.278;2022-08-19T03:43:57;94786.66;;;21.37;74.46
6132;BME280;3097;42.692;23.278;2022-08-19T03:46:29;94719.28;;;20.92;74.45
6132;BME280;3097;42.692;23.278;2022-08-19T03:48:57;94799.06;;;21.32;74.76
6132;BME280;3097;42.692;23.278;2022-08-19T03:51:32;94802.97;;;21.34;74.84
6132;BME280;3097;42.692;23.278;2022-08-19T03:54:00;94807.91;;;21.36;75.02
6132;BME280;3097;42.692;23.278;2022-08-19T03:56:27;94798.69;;;21.38;74.82
6132;BME280;3097;42.692;23.278;2022-08-19T03:58:55;94806.94;;;21.45;74.54
6132;BME280;3097;42.692;23.278;2022-08-19T04:01:24;94806.38;;;21.48;74.84
6132;BME280;3097;42.692;23.278;2022-08-19T04:03:51;94803.47;;;21.50;74.59
6132;BME280;3097;42.692;23.278;2022-08-19T04:06:20;94818.03;;;21.56;75.12
6132;BME280;3097;42.692;23.278;2022-08-19T04:08:49;94810.06;;;21.61;75.04
6132;BME280;3097;42.692;23.278;2022-08-19T04:11:18;94817.84;;;21.66;75.19
6132;BME280;3097;42.692;23.278;2022-08-19T04:13:46;94787.75;;;21.50;75.34
6132;BME280;3097;42.692;23.278;2022-08-19T04:16:12;94814.34;;;21.71;75.51
6132;BME280;3097;42.692;23.278;2022-08-19T04:18:39;94800.94;;;21.72;75.20
6132;BME280;3097;42.692;23.278;2022-08-19T04:21:06;94814.06;;;21.86;74.41
6132;BME280;3097;42.692;23.278;2022-08-19T04:23:32;94822.88;;;21.90;74.78
6132;BME280;3097;42.692;23.278;2022-08-19T04:25:58;94819.41;;;21.94;74.26
6132;BME280;3097;42.692;23.278;2022-08-19T04:28:24;94818.81;;;21.97;74.09
6132;BME280;3097;42.692;23.278;2022-08-19T04:30:52;94830.59;;;22.00;73.98
6132;BME280;3097;42.692;23.278;2022-08-19T04:33:20;94817.47;;;22.00;73.97
6132;BME280;3097;42.692;23.278;2022-08-19T04:35:49;94819.97;;;22.05;74.24
6132;BME280;3097;42.692;23.278;2022-08-19T04:38:17;94831.63;;;22.13;73.93
6132;BME280;3097;42.692;23.278;2022-08-19T04:40:45;94815.47;;;22.19;74.02
6132;BME280;3097;42.692;23.278;2022-08-19T04:43:31;94824.22;;;22.28;73.55
6132;BME280;3097;42.692;23.278;2022-08-19T04:45:57;94829.44;;;22.42;73.28
6132;BME280;3097;42.692;23.278;2022-08-19T04:48:22;94817.19;;;22.73;72.21
6132;BME280;3097;42.692;23.278;2022-08-19T04:50:56;94823.25;;;23.27;69.82
6132;BME280;3097;42.692;23.278;2022-08-19T04:53:29;94821.16;;;23.77;67.29
6132;BME280;3097;42.692;23.278;2022-08-19T04:55:56;94821.16;;;24.25;65.95
6132;BME280;3097;42.692;23.278;2022-08-19T04:58:24;94818.22;;;24.79;63.47
6132;BME280;3097;42.692;23.278;2022-08-19T05:00:49;94809.66;;;25.16;61.96
6132;BME280;3097;42.692;23.278;2022-08-19T05:03:16;94823.13;;;25.78;59.44
6132;BME280;3097;42.692;23.278;2022-08-19T05:05:43;94828.69;;;26.44;58.25
6132;BME280;3097;42.692;23.278;2022-08-19T05:08:10;94823.59;;;27.14;56.51
6132;BME280;3097;42.692;23.278;2022-08-19T05:10:37;94823.50;;;27.80;54.42
6132;BME280;3097;42.692;23.278;2022-08-19T05:13:04;94804.03;;;28.36;53.27
6132;BME280;3097;42.692;23.278;2022-08-19T05:15:30;94805.00;;;28.84;51.49
6132;BME280;3097;42.692;23.278;2022-08-19T05:17:59;94818.53;;;29.66;49.56
6132;BME280;3097;42.692;23.278;2022-08-19T05:20:43;94814.78;;;30.53;47.01
6132;BME280;3097;42.692;23.278;2022-08-19T05:23:27;94821.97;;;31.06;46.42
6132;BME280;3097;42.692;23.278;2022-08-19T05:25:52;94814.63;;;31.42;45.40
6132;BME280;3097;42.692;23.278;2022-08-19T05:28:19;94817.59;;;31.82;45.19
6132;BME280;3097;42.692;23.278;2022-08-19T05:30:45;94797.81;;;32.10;44.06
6132;BME280;3097;42.692;23.278;2022-08-19T05:33:11;94818.38;;;32.65;43.42
6132;BME280;3097;42.692;23.278;2022-08-19T05:35:39;94809.56;;;32.91;42.32
6132;BME280;3097;42.692;23.278;2022-08-19T05:38:06;94797.53;;;33.08;40.90
6132;BME280;3097;42.692;23.278;2022-08-19T05:40:38;94820.44;;;33.42;39.70
6132;BME280;3097;42.692;23.278;2022-08-19T05:43:05;94811.94;;;33.74;40.30
6132;BME280;3097;42.692;23.278;2022-08-19T05:45:30;94816.00;;;34.08;39.19
6132;BME280;3097;42.692;23.278;2022-08-19T05:47:56;94820.66;;;34.18;38.28
6132;BME280;3097;42.692;23.278;2022-08-19T05:50:24;94821.69;;;34.58;37.37
6132;BME280;3097;42.692;23.278;2022-08-19T05:52:52;94789.91;;;34.56;36.86
6132;BME280;3097;42.692;23.278;2022-08-19T05:55:18;94822.16;;;34.74;36.94
6132;BME280;3097;42.692;23.278;2022-08-19T05:57:45;94821.44;;;34.91;37.07
6132;BME280;3097;42.692;23.278;2022-08-19T06:00:12;94790.09;;;35.03;37.40
6132;BME280;3097;42.692;23.278;2022-08-19T06:02:38;94821.97;;;35.43;37.63
6132;BME280;3097;42.692;23.278;2022-08-19T06:05:05;94826.63;;;35.75;35.61
6132;BME280;3097;42.692;23.278;2022-08-19T06:07:32;94827.41;;;35.96;34.87
6132;BME280;3097;42.692;23.278;2022-08-19T06:09:58;94827.03;;;35.84;35.33
6132;BME280;3097;42.692;23.278;2022-08-19T06:12:23;94822.06;;;35.93;35.56
6132;BME280;3097;42.692;23.278;2022-08-19T06:14:54;94822.41;;;36.27;34.24
6132;BME280;3097;42.692;23.278;2022-08-19T06:17:20;94828.16;;;36.11;33.77
6132;BME280;3097;42.692;23.278;2022-08-19T06:19:47;94821.66;;;36.16;34.75
6132;BME280;3097;42.692;23.278;2022-08-19T06:22:15;94830.84;;;36.25;34.50
6132;BME280;3097;42.692;23.278;2022-08-19T06:24:41;94822.38;;;36.41;34.76
6132;BME280;3097;42.692;23.278;2022-08-19T06:27:07;94823.50;;;36.47;34.20
6132;BME280;3097;42.692;23.278;2022-08-19T06:29:32;94792.47;;;36.28;33.62
6132;BME280;3097;42.692;23.278;2022-08-19T06:32:00;94824.69;;;36.32;33.22
6132;BME280;3097;42.692;23.278;2022-08-19T06:34:27;94823.44;;;36.65;34.05
6132;BME280;3097;42.692;23.278;2022-08-19T06:36:54;94823.34;;;36.93;32.96
6132;BME280;3097;42.692;23.278;2022-08-19T06:39:24;94819.59;;;36.83;32.48
6132;BME280;3097;42.692;23.278;2022-08-19T06:41:54;94809.25;;;36.64;33.57
6132;BME280;3097;42.692;23.278;2022-08-19T06:44:21;94821.91;;;36.64;33.63
6132;BME280;3097;42.692;23.278;2022-08-19T06:46:48;94824.28;;;36.44;32.99
6132;BME280;3097;42.692;23.278;2022-08-19T06:49:15;94831.25;;;36.24;34.22
6132;BME280;3097;42.692;23.278;2022-08-19T06:51:48;94825.84;;;36.02;34.18
6132;BME280;3097;42.692;23.278;2022-08-19T06:54:17;94824.72;;;35.96;35.64
6132;BME280;3097;42.692;23.278;2022-08-19T06:56:44;94830.03;;;35.57;34.55
6132;BME280;3097;42.692;23.278;2022-08-19T06:59:14;94818.75;;;34.84;36.69
6132;BME280;3097;42.692;23.278;2022-08-19T07:01:43;94826.00;;;34.73;36.00
6132;BME280;3097;42.692;23.278;2022-08-19T07:04:11;94831.44;;;34.26;37.07
6132;BME280;3097;42.692;23.278;2022-08-19T07:06:37;94839.31;;;34.08;37.75
6132;BME280;3097;42.692;23.278;2022-08-19T07:09:04;94837.50;;;34.19;38.04
6132;BME280;3097;42.692;23.278;2022-08-19T07:11:30;94829.22;;;34.38;39.93
6132;BME280;3097;42.692;23.278;2022-08-19T07:13:57;94835.03;;;34.54;38.84
6132;BME280;3097;42.692;23.278;2022-08-19T07:16:22;94832.41;;;34.58;38.64
6132;BME280;3097;42.692;23.278;2022-08-19T07:18:49;94839.63;;;34.54;36.37
6132;BME280;3097;42.692;23.278;2022-08-19T07:21:18;94826.28;;;34.61;36.12
6132;BME280;3097;42.692;23.278;2022-08-19T07:23:45;94823.94;;;34.49;36.71
6132;BME280;3097;42.692;23.278;2022-08-19T07:26:26;94827.06;;;34.65;37.24
6132;BME280;3097;42.692;23.278;2022-08-19T07:28:52;94818.25;;;34.61;36.67
6132;BME280;3097;42.692;23.278;2022-08-19T07:31:21;94836.34;;;34.78;37.51
6132;BME280;3097;42.692;23.278;2022-08-19T07:33:49;94834.06;;;34.80;37.27
6132;BME280;3097;42.692;23.278;2022-08-19T07:36:18;94810.25;;;34.72;36.25
6132;BME280;3097;42.692;23.278;2022-08-19T07:38:47;94832.50;;;34.76;36.00
6132;BME280;3097;42.692;23.278;2022-08-19T07:41:22;94825.53;;;34.68;36.63
6132;BME280;3097;42.692;23.278;2022-08-19T07:43:49;94792.56;;;34.53;38.23
6132;BME280;3097;42.692;23.278;2022-08-19T07:46:14;94825.31;;;35.01;37.93
6132;BME280;3097;42.692;23.278;2022-08-19T07:48:44;94829.13;;;34.97;36.76
6132;BME280;3097;42.692;23.278;2022-08-19T07:51:15;94827.59;;;34.88;36.47
6132;BME280;3097;42.692;23.278;2022-08-19T07:53:41;94820.34;;;35.00;36.52
6132;BME280;3097;42.692;23.278;2022-08-19T07:56:08;94836.16;;;35.40;35.32
6132;BME280;3097;42.692;23.278;2022-08-19T07:58:37;94826.59;;;35.46;36.21
6132;BME280;3097;42.692;23.278;2022-08-19T08:01:04;94831.22;;;35.60;36.77
6132;BME280;3097;42.692;23.278;2022-08-19T08:03:30;94826.59;;;35.39;35.22
6132;BME280;3097;42.692;23.278;2022-08-19T08:06:15;94759.88;;;35.02;34.88
6132;BME280;3097;42.692;23.278;2022-08-19T08:09:00;94818.94;;;35.55;36.53
6132;BME280;3097;42.692;23.278;2022-08-19T08:11:52;94827.75;;;35.66;35.16
6132;BME280;3097;42.692;23.278;2022-08-19T08:14:24;94820.88;;;35.55;34.55
6132;BME280;3097;42.692;23.278;2022-08-19T08:16:51;94824.28;;;35.45;35.30
6132;BME280;3097;42.692;23.278;2022-08-19T08:19:18;94821.63;;;35.55;34.83
6132;BME280;3097;42.692;23.278;2022-08-19T08:21:45;94813.94;;;35.57;35.73
6132;BME280;3097;42.692;23.278;2022-08-19T08:24:11;94808.94;;;35.42;35.07
6132;BME280;3097;42.692;23.278;2022-08-19T08:26:37;94812.03;;;35.26;34.81
6132;BME280;3097;42.692;23.278;2022-08-19T08:29:03;94804.38;;;35.56;35.39
6132;BME280;3097;42.692;23.278;2022-08-19T08:31:28;94803.63;;;35.95;34.40
6132;BME280;3097;42.692;23.278;2022-08-19T08:33:54;94801.72;;;36.20;35.20
6132;BME280;3097;42.692;23.278;2022-08-19T08:36:20;94804.00;;;36.25;33.11
6132;BME280;3097;42.692;23.278;2022-08-19T08:38:45;94799.41;;;36.19;34.47
6132;BME280;3097;42.692;23.278;2022-08-19T08:41:26;94797.47;;;36.30;33.28
6132;BME280;3097;42.692;23.278;2022-08-19T08:43:53;94808.22;;;36.12;32.24
6132;BME280;3097;42.692;23.278;2022-08-19T08:46:51;94795.19;;;35.57;32.68
6132;BME280;3097;42.692;23.278;2022-08-19T08:49:41;94805.88;;;35.22;32.61
6132;BME280;3097;42.692;23.278;2022-08-19T08:52:15;94802.00;;;35.09;34.63
6132;BME280;3097;42.692;23.278;2022-08-19T08:54:44;94793.13;;;34.98;34.35
6132;BME280;3097;42.692;23.278;2022-08-19T09:00:00;94775.97;;;35.20;34.44
6132;BME280;3097;42.692;23.278;2022-08-19T09:02:29;94794.41;;;35.32;33.09
6132;BME280;3097;42.692;23.278;2022-08-19T09:04:54;94786.66;;;35.13;33.58
6132;BME280;3097;42.692;23.278;2022-08-19T09:10:17;94776.69;;;34.96;33.64
6132;BME280;3097;42.692;23.278;2022-08-19T09:15:46;94779.72;;;34.90;34.60
6132;BME280;3097;42.692;23.278;2022-08-19T09:18:14;94778.56;;;34.84;35.15
6132;BME280;3097;42.692;23.278;2022-08-19T09:20:40;94777.31;;;34.68;33.27
6132;BME280;3097;42.692;23.278;2022-08-19T09:23:05;94783.84;;;34.70;31.76
6132;BME280;3097;42.692;23.278;2022-08-19T09:25:31;94787.22;;;34.53;32.61
6132;BME280;3097;42.692;23.278;2022-08-19T09:27:57;94767.72;;;34.56;32.56
6132;BME280;3097;42.692;23.278;2022-08-19T09:30:30;94762.00;;;34.58;30.88
6132;BME280;3097;42.692;23.278;2022-08-19T09:32:56;94766.97;;;34.63;28.80
6132;BME280;3097;42.692;23.278;2022-08-19T09:35:23;94771.88;;;34.43;30.28
6132;BME280;3097;42.692;23.278;2022-08-19T09:37:49;94766.88;;;34.34;29.52
6132;BME280;3097;42.692;23.278;2022-08-19T09:40:16;94760.72;;;34.27;30.57
6132;BME280;3097;42.692;23.278;2022-08-19T09:42:43;94756.41;;;34.15;30.65
6132;BME280;3097;42.692;23.278;2022-08-19T09:45:10;94754.09;;;34.13;30.30
6132;BME280;3097;42.692;23.278;2022-08-19T09:47:36;94759.47;;;34.17;29.19
6132;BME280;3097;42.692;23.278;2022-08-19T09:50:05;94758.69;;;34.09;31.98
6132;BME280;3097;42.692;23.278;2022-08-19T09:52:32;94757.91;;;34.09;34.83
6132;BME280;3097;42.692;23.278;2022-08-19T09:54:58;94754.47;;;34.08;32.18
6132;BME280;3097;42.692;23.278;2022-08-19T09:57:24;94731.00;;;33.84;33.25
6132;BME280;3097;42.692;23.278;2022-08-19T09:59:49;94744.50;;;34.02;34.85
6132;BME280;3097;42.692;23.278;2022-08-19T10:02:15;94744.16;;;34.14;32.88
6132;BME280;3097;42.692;23.278;2022-08-19T10:04:40;94743.47;;;34.21;30.81
6132;BME280;3097;42.692;23.278;2022-08-19T10:07:25;94738.09;;;34.21;32.13
6132;BME280;3097;42.692;23.278;2022-08-19T10:09:50;94735.03;;;34.22;31.60
6132;BME280;3097;42.692;23.278;2022-08-19T10:12:16;94737.00;;;34.29;29.14
6132;BME280;3097;42.692;23.278;2022-08-19T10:14:41;94720.44;;;34.05;28.29
6132;BME280;3097;42.692;23.278;2022-08-19T10:17:07;94734.47;;;33.88;29.08
6132;BME280;3097;42.692;23.278;2022-08-19T10:19:33;94735.84;;;33.68;29.49
6132;BME280;3097;42.692;23.278;2022-08-19T10:22:05;94733.09;;;33.57;29.25
6132;BME280;3097;42.692;23.278;2022-08-19T10:24:32;94716.00;;;33.21;30.14
6132;BME280;3097;42.692;23.278;2022-08-19T10:27:00;94709.44;;;33.15;31.48
6132;BME280;3097;42.692;23.278;2022-08-19T10:29:28;94717.59;;;33.29;30.40
6132;BME280;3097;42.692;23.278;2022-08-19T10:31:54;94715.94;;;33.18;31.99
6132;BME280;3097;42.692;23.278;2022-08-19T10:34:21;94716.59;;;33.04;29.94
6132;BME280;3097;42.692;23.278;2022-08-19T10:36:46;94711.22;;;33.00;30.52
6132;BME280;3097;42.692;23.278;2022-08-19T10:39:14;94706.38;;;33.13;31.34
6132;BME280;3097;42.692;23.278;2022-08-19T10:41:39;94714.88;;;33.22;33.29
6132;BME280;3097;42.692;23.278;2022-08-19T10:44:08;94685.75;;;33.14;34.00
6132;BME280;3097;42.692;23.278;2022-08-19T10:46:37;94687.81;;;33.27;31.71
6132;BME280;3097;42.692;23.278;2022-08-19T10:49:04;94706.63;;;33.41;30.99
6132;BME280;3097;42.692;23.278;2022-08-19T10:51:31;94700.91;;;33.47;31.89
6132;BME280;3097;42.692;23.278;2022-08-19T10:54:16;94704.81;;;33.53;30.40
6132;BME280;3097;42.692;23.278;2022-08-19T10:56:42;94699.00;;;33.47;30.50
6132;BME280;3097;42.692;23.278;2022-08-19T10:59:20;94696.72;;;33.46;30.85
6132;BME280;3097;42.692;23.278;2022-08-19T11:01:47;94704.72;;;33.42;30.84
6132;BME280;3097;42.692;23.278;2022-08-19T11:04:14;94700.09;;;33.35;31.16
6132;BME280;3097;42.692;23.278;2022-08-19T11:06:44;94694.69;;;33.32;31.58
6132;BME280;3097;42.692;23.278;2022-08-19T11:09:10;94695.53;;;33.39;32.99
6132;BME280;3097;42.692;23.278;2022-08-19T11:11:37;94694.47;;;33.51;32.47
6132;BME280;3097;42.692;23.278;2022-08-19T11:14:13;94696.47;;;33.65;32.35
6132;BME280;3097;42.692;23.278;2022-08-19T11:16:40;94693.91;;;33.79;31.09
6132;BME280;3097;42.692;23.278;2022-08-19T11:19:09;94688.19;;;33.80;30.28
6132;BME280;3097;42.692;23.278;2022-08-19T11:21:40;94691.22;;;33.79;31.46
6132;BME280;3097;42.692;23.278;2022-08-19T11:24:12;94681.34;;;33.83;32.10
6132;BME280;3097;42.692;23.278;2022-08-19T11:26:39;94680.56;;;33.86;31.85
6132;BME280;3097;42.692;23.278;2022-08-19T11:29:06;94686.00;;;33.97;30.62
6132;BME280;3097;42.692;23.278;2022-08-19T11:31:37;94667.59;;;33.92;31.06
6132;BME280;3097;42.692;23.278;2022-08-19T11:34:06;94677.59;;;34.02;31.00
6132;BME280;3097;42.692;23.278;2022-08-19T11:36:33;94673.41;;;34.04;31.10
6132;BME280;3097;42.692;23.278;2022-08-19T11:39:00;94678.00;;;34.04;30.99
6132;BME280;3097;42.692;23.278;2022-08-19T11:41:26;94670.31;;;33.99;29.79
6132;BME280;3097;42.692;23.278;2022-08-19T11:43:53;94665.69;;;33.89;29.86
6132;BME280;3097;42.692;23.278;2022-08-19T11:46:21;94664.94;;;33.92;29.51
6132;BME280;3097;42.692;23.278;2022-08-19T11:48:48;94669.09;;;33.82;29.74
6132;BME280;3097;42.692;23.278;2022-08-19T11:51:17;94664.78;;;33.67;30.47
6132;BME280;3097;42.692;23.278;2022-08-19T11:53:44;94668.19;;;33.60;30.48
6132;BME280;3097;42.692;23.278;2022-08-19T11:56:11;94662.81;;;33.57;30.17
6132;BME280;3097;42.692;23.278;2022-08-19T11:58:38;94662.03;;;33.56;30.52
6132;BME280;3097;42.692;23.278;2022-08-19T12:01:08;94655.47;;;33.47;31.01
6132;BME280;3097;42.692;23.278;2022-08-19T12:03:34;94649.34;;;33.46;30.35
6132;BME280;3097;42.692;23.278;2022-08-19T12:06:22;94646.63;;;33.39;30.70
6132;BME280;3097;42.692;23.278;2022-08-19T12:08:55;94645.09;;;33.34;30.73
6132;BME280;3097;42.692;23.278;2022-08-19T12:11:21;94637.03;;;33.27;31.40
6132;BME280;3097;42.692;23.278;2022-08-19T12:13:46;94634.00;;;33.29;30.80
6132;BME280;3097;42.692;23.278;2022-08-19T12:16:18;94624.44;;;33.31;30.29
6132;BME280;3097;42.692;23.278;2022-08-19T12:18:44;94626.75;;;33.33;30.41
6132;BME280;3097;42.692;23.278;2022-08-19T12:21:16;94620.69;;;33.39;31.06
6132;BME280;3097;42.692;23.278;2022-08-19T12:23:43;94604.63;;;33.39;30.92
6132;BME280;3097;42.692;23.278;2022-08-19T12:26:10;94615.00;;;33.45;31.29
6132;BME280;3097;42.692;23.278;2022-08-19T12:28:37;94590.13;;;33.40;30.47
6132;BME280;3097;42.692;23.278;2022-08-19T12:31:02;94617.00;;;33.62;30.31
6132;BME280;3097;42.692;23.278;2022-08-19T12:33:28;94608.16;;;33.51;31.02
6132;BME280;3097;42.692;23.278;2022-08-19T12:35:54;94605.88;;;33.56;30.66
6132;BME280;3097;42.692;23.278;2022-08-19T12:38:21;94610.47;;;33.52;30.42
6132;BME280;3097;42.692;23.278;2022-08-19T12:40:49;94602.41;;;33.45;30.06
6132;BME280;3097;42.692;23.278;2022-08-19T12:43:17;94601.22;;;33.42;31.48
6132;BME280;3097;42.692;23.278;2022-08-19T12:45:45;94603.88;;;33.35;30.92
6132;BME280;3097;42.692;23.278;2022-08-19T12:48:12;94606.94;;;33.37;31.68
6132;BME280;3097;42.692;23.278;2022-08-19T12:50:42;94593.63;;;33.45;30.71
6132;BME280;3097;42.692;23.278;2022-08-19T12:53:08;94598.59;;;33.50;31.06
6132;BME280;3097;42.692;23.278;2022-08-19T12:55:33;94570.28;;;33.38;31.33
6132;BME280;3097;42.692;23.278;2022-08-19T12:57:59;94591.38;;;33.61;31.49
6132;BME280;3097;42.692;23.278;2022-08-19T13:00:27;94595.22;;;33.63;32.52
6132;BME280;3097;42.692;23.278;2022-08-19T13:02:53;94586.94;;;33.75;31.47
6132;BME280;3097;42.692;23.278;2022-08-19T13:05:25;94588.47;;;33.80;31.27
6132;BME280;3097;42.692;23.278;2022-08-19T13:07:52;94584.66;;;33.81;31.43
6132;BME280;3097;42.692;23.278;2022-08-19T13:10:21;94581.97;;;33.85;31.09
6132;BME280;3097;42.692;23.278;2022-08-19T13:12:48;94583.16;;;33.91;30.96
6132;BME280;3097;42.692;23.278;2022-08-19T13:15:15;94580.84;;;33.93;30.37
6132;BME280;3097;42.692;23.278;2022-08-19T13:17:45;94574.00;;;33.95;30.13
6132;BME280;3097;42.692;23.278;2022-08-19T13:20:12;94574.38;;;33.90;30.28
6132;BME280;3097;42.692;23.278;2022-08-19T13:22:37;94563.66;;;33.90;29.97